createdAt,value
2022-07-31T00:00:56.379Z,1014.64
2022-07-31T00:02:00.818Z,1014.64
2022-07-31T00:03:05.259Z,1014.64
2022-07-31T00:04:09.567Z,1014.63
2022-07-31T00:05:13.972Z,1014.63
2022-07-31T00:06:18.280Z,1014.61
2022-07-31T00:07:22.626Z,1014.63
2022-07-31T00:08:27.021Z,1014.65
2022-07-31T00:09:51.642Z,1014.63
2022-07-31T00:10:35.739Z,1014.64
2022-07-31T00:11:40.169Z,1014.62
2022-07-31T00:12:44.542Z,1014.62
2022-07-31T00:13:57.657Z,1014.62
2022-07-31T00:14:53.277Z,1014.63
2022-07-31T00:15:57.652Z,1014.61
2022-07-31T00:17:02.319Z,1014.62
2022-07-31T00:18:06.396Z,1014.61
2022-07-31T00:19:13.707Z,1014.59
2022-07-31T00:20:17.133Z,1014.60
2022-07-31T00:21:21.525Z,1014.59
2022-07-31T00:22:25.818Z,1014.59
2022-07-31T00:23:30.232Z,1014.59
2022-07-31T00:24:34.538Z,1014.60
2022-07-31T00:25:38.940Z,1014.62
2022-07-31T00:26:43.210Z,1014.62
2022-07-31T00:27:47.556Z,1014.63
2022-07-31T00:28:52.089Z,1014.63
2022-07-31T00:29:56.421Z,1014.60
2022-07-31T00:31:00.792Z,1014.61
2022-07-31T00:32:05.268Z,1014.63
2022-07-31T00:33:09.603Z,1014.59
2022-07-31T00:34:13.961Z,1014.57
2022-07-31T00:35:18.214Z,1014.56
2022-07-31T00:36:29.051Z,1014.54
2022-07-31T00:37:26.984Z,1014.53
2022-07-31T00:38:31.362Z,1014.52
2022-07-31T00:39:35.691Z,1014.51
2022-07-31T00:40:40.003Z,1014.51
2022-07-31T00:41:44.354Z,1014.52
2022-07-31T00:42:48.739Z,1014.52
2022-07-31T00:43:53.118Z,1014.50
2022-07-31T00:44:57.492Z,1014.50
2022-07-31T00:46:01.868Z,1014.50
2022-07-31T00:47:06.675Z,1014.52
2022-07-31T00:48:10.657Z,1014.54
2022-07-31T00:49:15.249Z,1014.53
2022-07-31T00:50:19.448Z,1014.53
2022-07-31T00:51:23.815Z,1014.53
2022-07-31T00:52:28.095Z,1014.50
2022-07-31T00:53:32.515Z,1014.51
2022-07-31T00:54:36.893Z,1014.48
2022-07-31T00:55:41.776Z,1014.47
2022-07-31T00:56:45.645Z,1014.44
2022-07-31T00:57:50.020Z,1014.42
2022-07-31T00:58:54.310Z,1014.44
2022-07-31T00:59:58.711Z,1014.45
2022-07-31T01:01:03.313Z,1014.47
2022-07-31T01:02:07.636Z,1014.51
2022-07-31T01:03:11.961Z,1014.52
2022-07-31T01:04:16.357Z,1014.51
2022-07-31T01:05:20.815Z,1014.52
2022-07-31T01:06:25.068Z,1014.50
2022-07-31T01:07:29.479Z,1014.50
2022-07-31T01:08:33.822Z,1014.50
2022-07-31T01:09:38.210Z,1014.49
2022-07-31T01:10:42.616Z,1014.49
2022-07-31T01:11:46.915Z,1014.48
2022-07-31T01:12:54.230Z,1014.49
2022-07-31T01:13:55.655Z,1014.46
2022-07-31T01:15:00.105Z,1014.47
2022-07-31T01:16:04.388Z,1014.45
2022-07-31T01:17:08.759Z,1014.41
2022-07-31T01:18:13.114Z,1014.40
2022-07-31T01:19:17.477Z,1014.38
2022-07-31T01:20:21.841Z,1014.37
2022-07-31T01:21:26.197Z,1014.37
2022-07-31T01:22:33.905Z,1014.37
2022-07-31T01:23:34.994Z,1014.39
2022-07-31T01:24:39.290Z,1014.39
2022-07-31T01:25:43.714Z,1014.38
2022-07-31T01:26:48.141Z,1014.40
2022-07-31T01:27:52.363Z,1014.40
2022-07-31T01:28:56.686Z,1014.41
2022-07-31T01:30:01.064Z,1014.42
2022-07-31T01:31:25.684Z,1014.44
2022-07-31T01:32:09.924Z,1014.44
2022-07-31T01:33:14.275Z,1014.45
2022-07-31T01:34:18.686Z,1014.47
2022-07-31T01:35:23.021Z,1014.48
2022-07-31T01:36:27.481Z,1014.48
2022-07-31T01:37:31.683Z,1014.51
2022-07-31T01:38:36.116Z,1014.53
2022-07-31T01:39:40.477Z,1014.51
2022-07-31T01:40:44.737Z,1014.49
2022-07-31T01:41:49.068Z,1014.49
2022-07-31T01:42:53.379Z,1014.47
2022-07-31T01:43:57.805Z,1014.47
2022-07-31T01:45:02.180Z,1014.47
2022-07-31T01:46:06.526Z,1014.46
2022-07-31T01:47:10.986Z,1014.47
2022-07-31T01:48:15.241Z,1014.50
2022-07-31T01:49:19.629Z,1014.47
2022-07-31T01:50:43.931Z,1014.47
2022-07-31T01:51:28.389Z,1014.49
2022-07-31T01:52:32.813Z,1014.49
2022-07-31T01:53:37.114Z,1014.49
2022-07-31T01:54:41.246Z,1014.48
2022-07-31T01:55:56.355Z,1014.47
2022-07-31T01:56:50.012Z,1014.43
2022-07-31T01:57:54.387Z,1014.41
2022-07-31T01:58:58.860Z,1014.38
2022-07-31T02:00:03.238Z,1014.39
2022-07-31T02:01:07.644Z,1014.37
2022-07-31T02:02:11.928Z,1014.37
2022-07-31T02:03:16.401Z,1014.38
2022-07-31T02:04:20.708Z,1014.37
2022-07-31T02:05:25.076Z,1014.38
2022-07-31T02:06:29.533Z,1014.35
2022-07-31T02:07:33.873Z,1014.36
2022-07-31T02:08:38.319Z,1014.34
2022-07-31T02:09:58.715Z,1014.32
2022-07-31T02:10:47.012Z,1014.30
2022-07-31T02:11:54.706Z,1014.28
2022-07-31T02:12:55.639Z,1014.28
2022-07-31T02:14:00.096Z,1014.27
2022-07-31T02:15:04.440Z,1014.26
2022-07-31T02:16:08.813Z,1014.28
2022-07-31T02:17:13.289Z,1014.28
2022-07-31T02:18:17.623Z,1014.29
2022-07-31T02:19:22.056Z,1014.29
2022-07-31T02:20:26.314Z,1014.26
2022-07-31T02:21:30.766Z,1014.25
2022-07-31T02:22:35.015Z,1014.25
2022-07-31T02:23:39.435Z,1014.24
2022-07-31T02:24:43.790Z,1014.21
2022-07-31T02:25:48.273Z,1014.22
2022-07-31T02:26:55.528Z,1014.20
2022-07-31T02:27:59.366Z,1014.22
2022-07-31T02:29:03.353Z,1014.20
2022-07-31T02:30:07.720Z,1014.22
2022-07-31T02:31:12.066Z,1014.22
2022-07-31T02:32:16.621Z,1014.23
2022-07-31T02:33:20.765Z,1014.23
2022-07-31T02:34:30.053Z,1014.21
2022-07-31T02:35:29.451Z,1014.22
2022-07-31T02:36:33.843Z,1014.23
2022-07-31T02:37:38.272Z,1014.24
2022-07-31T02:38:42.627Z,1014.26
2022-07-31T02:39:46.984Z,1014.26
2022-07-31T02:40:51.342Z,1014.27
2022-07-31T02:41:55.691Z,1014.27
2022-07-31T02:43:00.102Z,1014.28
2022-07-31T02:44:04.434Z,1014.30
2022-07-31T02:45:08.760Z,1014.30
2022-07-31T02:46:13.131Z,1014.28
2022-07-31T02:47:17.496Z,1014.27
2022-07-31T02:48:24.841Z,1014.29
2022-07-31T02:49:28.346Z,1014.27
2022-07-31T02:50:32.613Z,1014.26
2022-07-31T02:51:42.610Z,1014.24
2022-07-31T02:52:41.233Z,1014.24
2022-07-31T02:53:45.611Z,1014.26
2022-07-31T02:54:49.885Z,1014.29
2022-07-31T02:55:54.282Z,1014.28
2022-07-31T02:56:58.700Z,1014.28
2022-07-31T02:58:03.044Z,1014.28
2022-07-31T02:59:07.343Z,1014.27
2022-07-31T03:00:11.760Z,1014.27
2022-07-31T03:01:16.269Z,1014.26
2022-07-31T03:02:20.452Z,1014.26
2022-07-31T03:03:24.771Z,1014.23
2022-07-31T03:04:29.180Z,1014.24
2022-07-31T03:05:33.449Z,1014.23
2022-07-31T03:06:37.865Z,1014.23
2022-07-31T03:07:42.214Z,1014.21
2022-07-31T03:08:46.695Z,1014.20
2022-07-31T03:09:50.997Z,1014.20
2022-07-31T03:10:55.337Z,1014.19
2022-07-31T03:12:01.886Z,1014.19
2022-07-31T03:13:03.973Z,1014.18
2022-07-31T03:14:08.294Z,1014.19
2022-07-31T03:15:12.602Z,1014.17
2022-07-31T03:16:16.988Z,1014.16
2022-07-31T03:17:21.327Z,1014.13
2022-07-31T03:18:25.664Z,1014.15
2022-07-31T03:19:30.023Z,1014.14
2022-07-31T03:20:34.285Z,1014.12
2022-07-31T03:21:38.672Z,1014.13
2022-07-31T03:22:42.989Z,1014.11
2022-07-31T03:23:47.457Z,1014.11
2022-07-31T03:24:51.767Z,1014.12
2022-07-31T03:25:56.005Z,1014.10
2022-07-31T03:27:00.477Z,1014.11
2022-07-31T03:28:04.789Z,1014.10
2022-07-31T03:29:42.411Z,1014.11
2022-07-31T03:30:13.576Z,1014.12
2022-07-31T03:31:17.867Z,1014.13
2022-07-31T03:32:22.311Z,1014.13
2022-07-31T03:33:26.641Z,1014.13
2022-07-31T03:34:33.927Z,1014.15
2022-07-31T03:35:42.451Z,1014.13
2022-07-31T03:36:41.742Z,1014.11
2022-07-31T03:37:46.025Z,1014.12
2022-07-31T03:38:50.854Z,1014.15
2022-07-31T03:39:54.635Z,1014.15
2022-07-31T03:40:58.995Z,1014.13
2022-07-31T03:42:03.697Z,1014.15
2022-07-31T03:43:07.587Z,1014.15
2022-07-31T03:44:11.879Z,1014.15
2022-07-31T03:45:16.260Z,1014.16
2022-07-31T03:46:20.519Z,1014.18
2022-07-31T03:47:24.826Z,1014.18
2022-07-31T03:48:29.105Z,1014.17
2022-07-31T03:49:33.470Z,1014.16
2022-07-31T03:50:37.771Z,1014.13
2022-07-31T03:51:42.093Z,1014.12
2022-07-31T03:52:46.395Z,1014.12
2022-07-31T03:53:50.767Z,1014.12
2022-07-31T03:54:55.048Z,1014.14
2022-07-31T03:55:59.408Z,1014.14
2022-07-31T03:57:03.668Z,1014.11
2022-07-31T03:58:07.989Z,1014.13
2022-07-31T03:59:12.374Z,1014.11
2022-07-31T04:00:17.759Z,1014.10
2022-07-31T04:01:21.172Z,1014.11
2022-07-31T04:02:25.422Z,1014.13
2022-07-31T04:03:29.663Z,1014.13
2022-07-31T04:04:33.932Z,1014.13
2022-07-31T04:05:38.315Z,1014.13
2022-07-31T04:06:42.626Z,1014.12
2022-07-31T04:07:46.883Z,1014.13
2022-07-31T04:08:51.190Z,1014.14
2022-07-31T04:09:55.514Z,1014.12
2022-07-31T04:10:59.835Z,1014.13
2022-07-31T04:12:04.546Z,1014.13
2022-07-31T04:13:08.446Z,1014.14
2022-07-31T04:14:12.855Z,1014.14
2022-07-31T04:15:17.207Z,1014.14
2022-07-31T04:16:21.449Z,1014.17
2022-07-31T04:17:25.748Z,1014.15
2022-07-31T04:18:30.105Z,1014.17
2022-07-31T04:19:34.353Z,1014.16
2022-07-31T04:20:38.725Z,1014.15
2022-07-31T04:21:42.988Z,1014.13
2022-07-31T04:22:47.395Z,1014.09
2022-07-31T04:23:51.661Z,1014.09
2022-07-31T04:24:55.932Z,1014.08
2022-07-31T04:26:00.364Z,1014.07
2022-07-31T04:27:08.129Z,1014.09
2022-07-31T04:28:08.962Z,1014.10
2022-07-31T04:29:13.397Z,1014.09
2022-07-31T04:30:17.732Z,1014.08
2022-07-31T04:31:22.093Z,1014.09
2022-07-31T04:32:26.439Z,1014.10
2022-07-31T04:33:30.753Z,1014.11
2022-07-31T04:34:35.048Z,1014.14
2022-07-31T04:35:39.444Z,1014.15
2022-07-31T04:36:43.703Z,1014.16
2022-07-31T04:37:48.656Z,1014.17
2022-07-31T04:38:52.481Z,1014.15
2022-07-31T04:39:56.739Z,1014.17
2022-07-31T04:41:01.107Z,1014.18
2022-07-31T04:42:10.723Z,1014.18
2022-07-31T04:43:09.832Z,1014.20
2022-07-31T04:44:14.106Z,1014.18
2022-07-31T04:45:18.424Z,1014.17
2022-07-31T04:46:22.782Z,1014.15
2022-07-31T04:47:27.072Z,1014.17
2022-07-31T04:48:31.340Z,1014.16
2022-07-31T04:49:35.822Z,1014.15
2022-07-31T04:50:40.096Z,1014.10
2022-07-31T04:51:44.474Z,1014.08
2022-07-31T04:52:48.707Z,1014.10
2022-07-31T04:53:53.054Z,1014.06
2022-07-31T04:54:57.355Z,1014.06
2022-07-31T04:56:01.691Z,1014.05
2022-07-31T04:57:05.984Z,1014.04
2022-07-31T04:58:10.426Z,1014.04
2022-07-31T04:59:14.684Z,1014.05
2022-07-31T05:00:18.995Z,1014.04
2022-07-31T05:01:23.331Z,1014.04
2022-07-31T05:02:27.773Z,1014.04
2022-07-31T05:03:32.152Z,1014.04
2022-07-31T05:04:36.505Z,1014.04
2022-07-31T05:05:40.760Z,1014.06
2022-07-31T05:06:45.183Z,1014.06
2022-07-31T05:07:49.506Z,1014.06
2022-07-31T05:08:53.812Z,1014.05
2022-07-31T05:09:58.185Z,1014.04
2022-07-31T05:11:02.560Z,1014.05
2022-07-31T05:12:07.271Z,1014.03
2022-07-31T05:13:11.198Z,1014.02
2022-07-31T05:14:15.660Z,1014.03
2022-07-31T05:15:22.924Z,1014.03
2022-07-31T05:16:26.419Z,1014.03
2022-07-31T05:17:30.781Z,1014.05
2022-07-31T05:18:35.053Z,1014.04
2022-07-31T05:19:39.437Z,1014.04
2022-07-31T05:20:43.723Z,1014.04
2022-07-31T05:21:53.698Z,1014.02
2022-07-31T05:22:52.581Z,1014.03
2022-07-31T05:23:56.835Z,1014.04
2022-07-31T05:25:01.192Z,1014.02
2022-07-31T05:26:05.580Z,1014.00
2022-07-31T05:27:09.964Z,1014.00
2022-07-31T05:28:14.256Z,1013.99
2022-07-31T05:29:18.551Z,1013.98
2022-07-31T05:30:30.414Z,1013.95
2022-07-31T05:31:27.330Z,1013.95
2022-07-31T05:32:31.645Z,1013.95
2022-07-31T05:33:36.059Z,1013.97
2022-07-31T05:34:40.342Z,1014.00
2022-07-31T05:35:44.762Z,1013.99
2022-07-31T05:36:49.022Z,1014.00
2022-07-31T05:37:53.429Z,1013.98
2022-07-31T05:38:57.804Z,1013.97
2022-07-31T05:40:02.111Z,1013.98
2022-07-31T05:41:06.427Z,1013.98
2022-07-31T05:42:10.744Z,1013.99
2022-07-31T05:43:15.190Z,1014.00
2022-07-31T05:44:19.577Z,1014.00
2022-07-31T05:45:23.939Z,1013.98
2022-07-31T05:46:28.221Z,1013.99
2022-07-31T05:47:40.091Z,1014.00
2022-07-31T05:48:37.037Z,1014.06
2022-07-31T05:49:41.345Z,1014.12
2022-07-31T05:50:45.644Z,1014.14
2022-07-31T05:51:49.945Z,1014.17
2022-07-31T05:52:54.496Z,1014.17
2022-07-31T05:53:58.802Z,1014.14
2022-07-31T05:55:03.142Z,1014.14
2022-07-31T05:56:07.543Z,1014.12
2022-07-31T05:57:11.904Z,1014.12
2022-07-31T05:58:17.036Z,1014.12
2022-07-31T05:59:20.497Z,1014.15
2022-07-31T06:00:24.940Z,1014.14
2022-07-31T06:01:29.264Z,1014.14
2022-07-31T06:02:33.568Z,1014.14
2022-07-31T06:03:51.568Z,1014.14
2022-07-31T06:04:42.244Z,1014.13
2022-07-31T06:05:46.701Z,1014.11
2022-07-31T06:06:50.968Z,1014.11
2022-07-31T06:07:55.427Z,1014.10
2022-07-31T06:09:04.541Z,1014.09
2022-07-31T06:10:04.180Z,1014.11
2022-07-31T06:11:08.598Z,1014.13
2022-07-31T06:12:12.873Z,1014.13
2022-07-31T06:13:17.203Z,1014.15
2022-07-31T06:14:21.636Z,1014.15
2022-07-31T06:15:25.937Z,1014.17
2022-07-31T06:16:30.270Z,1014.19
2022-07-31T06:17:43.669Z,1014.17
2022-07-31T06:18:38.958Z,1014.23
2022-07-31T06:19:43.363Z,1014.21
2022-07-31T06:20:47.746Z,1014.23
2022-07-31T06:21:52.163Z,1014.21
2022-07-31T06:22:56.474Z,1014.19
2022-07-31T06:24:00.788Z,1014.17
2022-07-31T06:25:05.241Z,1014.17
2022-07-31T06:26:09.590Z,1014.17
2022-07-31T06:27:16.239Z,1014.17
2022-07-31T06:28:18.355Z,1014.19
2022-07-31T06:29:23.592Z,1014.21
2022-07-31T06:30:27.182Z,1014.21
2022-07-31T06:31:31.438Z,1014.21
2022-07-31T06:32:35.793Z,1014.23
2022-07-31T06:33:40.214Z,1014.22
2022-07-31T06:34:44.619Z,1014.23
2022-07-31T06:35:48.902Z,1014.19
2022-07-31T06:36:53.358Z,1014.17
2022-07-31T06:37:57.761Z,1014.17
2022-07-31T06:39:02.051Z,1014.14
2022-07-31T06:40:06.512Z,1014.11
2022-07-31T06:41:10.912Z,1014.06
2022-07-31T06:42:15.307Z,1014.03
2022-07-31T06:43:19.694Z,1014.02
2022-07-31T06:44:24.125Z,1014.02
2022-07-31T06:45:50.764Z,1014.04
2022-07-31T06:46:32.945Z,1014.00
2022-07-31T06:47:37.256Z,1014.00
2022-07-31T06:48:41.686Z,1013.96
2022-07-31T06:49:46.077Z,1013.92
2022-07-31T06:50:50.437Z,1013.91
2022-07-31T06:51:54.797Z,1013.89
2022-07-31T06:52:59.253Z,1013.89
2022-07-31T06:54:03.677Z,1013.88
2022-07-31T06:55:08.050Z,1013.88
2022-07-31T06:56:12.408Z,1013.88
2022-07-31T06:57:16.785Z,1013.87
2022-07-31T06:58:21.170Z,1013.86
2022-07-31T06:59:40.354Z,1013.86
2022-07-31T07:00:33.058Z,1013.86
2022-07-31T07:01:36.680Z,1013.87
2022-07-31T07:02:40.998Z,1013.85
2022-07-31T07:03:45.453Z,1013.82
2022-07-31T07:05:04.466Z,1013.80
2022-07-31T07:05:54.230Z,1013.78
2022-07-31T07:06:58.667Z,1013.81
2022-07-31T07:08:03.098Z,1013.82
2022-07-31T07:09:07.416Z,1013.83
2022-07-31T07:10:11.927Z,1013.86
2022-07-31T07:11:16.322Z,1013.84
2022-07-31T07:12:20.720Z,1013.84
2022-07-31T07:13:25.137Z,1013.84
2022-07-31T07:14:29.577Z,1013.82
2022-07-31T07:15:33.958Z,1013.80
2022-07-31T07:16:38.407Z,1013.82
2022-07-31T07:17:45.928Z,1013.79
2022-07-31T07:18:49.434Z,1013.80
2022-07-31T07:19:54.749Z,1013.79
2022-07-31T07:20:58.258Z,1013.77
2022-07-31T07:22:02.979Z,1013.75
2022-07-31T07:23:07.066Z,1013.74
2022-07-31T07:24:11.495Z,1013.75
2022-07-31T07:25:15.837Z,1013.74
2022-07-31T07:26:20.331Z,1013.72
2022-07-31T07:27:24.730Z,1013.73
2022-07-31T07:28:30.582Z,1013.74
2022-07-31T07:29:33.615Z,1013.73
2022-07-31T07:30:38.045Z,1013.75
2022-07-31T07:31:42.508Z,1013.76
2022-07-31T07:32:46.809Z,1013.75
2022-07-31T07:33:51.281Z,1013.74
2022-07-31T07:35:00.121Z,1013.74
2022-07-31T07:36:00.107Z,1013.73
2022-07-31T07:37:04.434Z,1013.73
2022-07-31T07:38:09.381Z,1013.72
2022-07-31T07:39:13.320Z,1013.72
2022-07-31T07:40:17.665Z,1013.73
2022-07-31T07:41:22.049Z,1013.72
2022-07-31T07:42:26.501Z,1013.69
2022-07-31T07:43:30.972Z,1013.68
2022-07-31T07:44:38.380Z,1013.69
2022-07-31T07:45:41.979Z,1013.67
2022-07-31T07:46:46.347Z,1013.67
2022-07-31T07:48:05.176Z,1013.67
2022-07-31T07:48:55.212Z,1013.69
2022-07-31T07:49:59.605Z,1013.66
2022-07-31T07:51:04.036Z,1013.66
2022-07-31T07:52:08.454Z,1013.64
2022-07-31T07:53:12.778Z,1013.64
2022-07-31T07:54:17.259Z,1013.62
2022-07-31T07:55:21.583Z,1013.61
2022-07-31T07:56:26.072Z,1013.60
2022-07-31T07:57:30.385Z,1013.59
2022-07-31T07:58:34.749Z,1013.59
2022-07-31T07:59:39.139Z,1013.61
2022-07-31T08:00:43.661Z,1013.58
2022-07-31T08:01:48.006Z,1013.55
2022-07-31T08:03:47.071Z,1013.54
2022-07-31T08:03:56.774Z,1013.53
2022-07-31T08:05:01.290Z,1013.52
2022-07-31T08:06:05.847Z,1013.51
2022-07-31T08:07:10.168Z,1013.49
2022-07-31T08:08:14.658Z,1013.47
2022-07-31T08:09:19.097Z,1013.45
2022-07-31T08:10:23.445Z,1013.42
2022-07-31T08:11:27.958Z,1013.40
2022-07-31T08:12:32.262Z,1013.41
2022-07-31T08:13:36.686Z,1013.39
2022-07-31T08:14:41.075Z,1013.37
2022-07-31T08:15:45.464Z,1013.35
2022-07-31T08:16:49.982Z,1013.34
2022-07-31T08:17:54.271Z,1013.33
2022-07-31T08:18:58.775Z,1013.33
2022-07-31T08:20:03.210Z,1013.31
2022-07-31T08:21:07.696Z,1013.28
2022-07-31T08:22:12.052Z,1013.28
2022-07-31T08:23:18.260Z,1013.27
2022-07-31T08:24:20.733Z,1013.25
2022-07-31T08:25:25.140Z,1013.26
2022-07-31T08:26:32.611Z,1013.28
2022-07-31T08:27:39.998Z,1013.27
2022-07-31T08:28:40.513Z,1013.28
2022-07-31T08:29:44.929Z,1013.29
2022-07-31T08:30:49.313Z,1013.28
2022-07-31T08:31:53.842Z,1013.29
2022-07-31T08:32:58.197Z,1013.29
2022-07-31T08:34:02.675Z,1013.32
2022-07-31T08:35:07.045Z,1013.32
2022-07-31T08:36:11.517Z,1013.31
2022-07-31T08:37:51.638Z,1013.30
2022-07-31T08:38:20.416Z,1013.29
2022-07-31T08:39:24.878Z,1013.28
2022-07-31T08:40:29.317Z,1013.27
2022-07-31T08:41:33.682Z,1013.26
2022-07-31T08:42:38.134Z,1013.23
2022-07-31T08:43:59.883Z,1013.22
2022-07-31T08:44:46.982Z,1013.21
2022-07-31T08:45:51.334Z,1013.21
2022-07-31T08:46:55.869Z,1013.20
2022-07-31T08:48:00.288Z,1013.16
2022-07-31T08:49:04.774Z,1013.15
2022-07-31T08:50:09.017Z,1013.15
2022-07-31T08:51:13.545Z,1013.15
2022-07-31T08:52:18.028Z,1013.15
2022-07-31T08:53:22.502Z,1013.13
2022-07-31T08:54:26.988Z,1013.14
2022-07-31T08:55:55.951Z,1013.16
2022-07-31T08:56:35.779Z,1013.15
2022-07-31T08:57:40.282Z,1013.12
2022-07-31T08:58:44.678Z,1013.13
2022-07-31T08:59:49.055Z,1013.13
2022-07-31T09:00:53.605Z,1013.14
2022-07-31T09:01:57.955Z,1013.14
2022-07-31T09:03:02.360Z,1013.14
2022-07-31T09:04:06.871Z,1013.13
2022-07-31T09:05:11.311Z,1013.13
2022-07-31T09:06:15.761Z,1013.12
2022-07-31T09:07:20.236Z,1013.13
2022-07-31T09:08:24.705Z,1013.11
2022-07-31T09:09:45.211Z,1013.13
2022-07-31T09:10:33.603Z,1013.13
2022-07-31T09:11:38.091Z,1013.13
2022-07-31T09:12:42.457Z,1013.14
2022-07-31T09:13:52.465Z,1013.17
2022-07-31T09:14:51.411Z,1013.16
2022-07-31T09:15:55.888Z,1013.15
2022-07-31T09:17:00.382Z,1013.16
2022-07-31T09:18:04.803Z,1013.15
2022-07-31T09:19:52.755Z,1013.14
2022-07-31T09:20:13.650Z,1013.15
2022-07-31T09:21:18.101Z,1013.17
2022-07-31T09:22:22.607Z,1013.14
2022-07-31T09:23:27.036Z,1013.15
2022-07-31T09:24:31.552Z,1013.14
2022-07-31T09:25:35.925Z,1013.15
2022-07-31T09:26:40.453Z,1013.15
2022-07-31T09:27:44.911Z,1013.13
2022-07-31T09:28:49.374Z,1013.11
2022-07-31T09:29:53.831Z,1013.12
2022-07-31T09:30:58.191Z,1013.07
2022-07-31T09:32:02.763Z,1013.06
2022-07-31T09:33:07.119Z,1013.07
2022-07-31T09:34:11.532Z,1013.08
2022-07-31T09:35:18.984Z,1013.05
2022-07-31T09:36:22.661Z,1013.02
2022-07-31T09:37:27.106Z,1013.00
2022-07-31T09:38:31.683Z,1012.98
2022-07-31T09:39:36.138Z,1012.97
2022-07-31T09:40:55.422Z,1012.97
2022-07-31T09:41:56.838Z,1012.95
2022-07-31T09:42:55.676Z,1012.94
2022-07-31T09:43:54.075Z,1012.95
2022-07-31T09:44:58.537Z,1012.92
2022-07-31T09:46:03.067Z,1012.95
2022-07-31T09:47:07.643Z,1012.96
2022-07-31T09:48:12.545Z,1012.93
2022-07-31T09:49:16.619Z,1012.94
2022-07-31T09:50:20.958Z,1012.96
2022-07-31T09:51:25.427Z,1012.91
2022-07-31T09:52:29.928Z,1012.90
2022-07-31T09:53:34.423Z,1012.91
2022-07-31T09:54:38.901Z,1012.90
2022-07-31T09:55:43.378Z,1012.92
2022-07-31T09:56:47.875Z,1012.94
2022-07-31T09:57:52.340Z,1012.93
2022-07-31T09:58:56.815Z,1012.93
2022-07-31T10:00:01.299Z,1012.92
2022-07-31T10:01:05.886Z,1012.92
2022-07-31T10:02:10.144Z,1012.91
2022-07-31T10:03:14.754Z,1012.89
2022-07-31T10:04:19.110Z,1012.89
2022-07-31T10:05:23.737Z,1012.85
2022-07-31T10:06:28.193Z,1012.83
2022-07-31T10:07:33.044Z,1012.85
2022-07-31T10:08:37.018Z,1012.86
2022-07-31T10:09:41.522Z,1012.86
2022-07-31T10:10:45.930Z,1012.80
2022-07-31T10:11:50.539Z,1012.76
2022-07-31T10:12:54.954Z,1012.77
2022-07-31T10:13:59.414Z,1012.78
2022-07-31T10:15:03.874Z,1012.77
2022-07-31T10:16:08.421Z,1012.77
2022-07-31T10:17:12.744Z,1012.73
2022-07-31T10:18:17.259Z,1012.75
2022-07-31T10:19:21.733Z,1012.73
2022-07-31T10:20:26.343Z,1012.74
2022-07-31T10:21:30.768Z,1012.72
2022-07-31T10:22:35.260Z,1012.68
2022-07-31T10:23:39.717Z,1012.67
2022-07-31T10:24:44.221Z,1012.67
2022-07-31T10:25:53.455Z,1012.67
2022-07-31T10:27:01.948Z,1012.69
2022-07-31T10:27:57.763Z,1012.67
2022-07-31T10:29:16.419Z,1012.63
2022-07-31T10:30:33.893Z,1012.62
2022-07-31T10:31:37.251Z,1012.58
2022-07-31T10:32:41.642Z,1012.58
2022-07-31T10:33:46.107Z,1012.59
2022-07-31T10:34:50.696Z,1012.58
2022-07-31T10:35:55.740Z,1012.55
2022-07-31T10:36:59.643Z,1012.56
2022-07-31T10:38:04.136Z,1012.55
2022-07-31T10:39:08.774Z,1012.53
2022-07-31T10:40:13.300Z,1012.53
2022-07-31T10:41:17.715Z,1012.53
2022-07-31T10:42:22.161Z,1012.53
2022-07-31T10:43:26.710Z,1012.54
2022-07-31T10:44:33.484Z,1012.52
2022-07-31T10:45:35.547Z,1012.50
2022-07-31T10:46:40.158Z,1012.44
2022-07-31T10:47:50.612Z,1012.43
2022-07-31T10:48:53.906Z,1012.39
2022-07-31T10:49:58.305Z,1012.44
2022-07-31T10:51:02.657Z,1012.42
2022-07-31T10:52:07.198Z,1012.41
2022-07-31T10:53:11.713Z,1012.40
2022-07-31T10:54:16.166Z,1012.40
2022-07-31T10:55:20.639Z,1012.46
2022-07-31T10:56:25.133Z,1012.43
2022-07-31T10:57:29.598Z,1012.43
2022-07-31T10:58:34.083Z,1012.39
2022-07-31T10:59:42.909Z,1012.37
2022-07-31T11:00:43.091Z,1012.37
2022-07-31T11:01:53.217Z,1012.45
2022-07-31T11:02:51.966Z,1012.43
2022-07-31T11:03:56.543Z,1012.38
2022-07-31T11:05:00.971Z,1012.35
2022-07-31T11:06:05.451Z,1012.36
2022-07-31T11:07:09.955Z,1012.40
2022-07-31T11:08:14.356Z,1012.37
2022-07-31T11:09:18.887Z,1012.32
2022-07-31T11:10:23.388Z,1012.30
2022-07-31T11:11:27.824Z,1012.30
2022-07-31T11:12:32.359Z,1012.28
2022-07-31T11:13:37.350Z,1012.28
2022-07-31T11:14:41.337Z,1012.23
2022-07-31T11:15:45.846Z,1012.21
2022-07-31T11:16:50.315Z,1012.18
2022-07-31T11:18:21.325Z,1012.18
2022-07-31T11:18:59.269Z,1012.19
2022-07-31T11:20:03.863Z,1012.16
2022-07-31T11:21:36.052Z,1012.15
2022-07-31T11:22:31.935Z,1012.13
2022-07-31T11:23:17.349Z,1012.13
2022-07-31T11:24:21.827Z,1012.08
2022-07-31T11:25:26.352Z,1012.09
2022-07-31T11:26:33.002Z,1012.07
2022-07-31T11:27:35.388Z,1012.07
2022-07-31T11:28:39.799Z,1012.07
2022-07-31T11:30:01.672Z,1012.07
2022-07-31T11:30:48.901Z,1012.02
2022-07-31T11:31:53.359Z,1012.02
2022-07-31T11:32:57.891Z,1012.04
2022-07-31T11:34:02.423Z,1012.04
2022-07-31T11:35:06.874Z,1012.02
2022-07-31T11:36:11.387Z,1012.01
2022-07-31T11:37:15.912Z,1012.00
2022-07-31T11:38:20.446Z,1011.96
2022-07-31T11:39:32.804Z,1011.97
2022-07-31T11:40:29.474Z,1011.95
2022-07-31T11:41:38.210Z,1011.94
2022-07-31T11:42:38.460Z,1011.92
2022-07-31T11:43:42.957Z,1011.93
2022-07-31T11:44:47.477Z,1011.93
2022-07-31T11:45:51.983Z,1011.92
2022-07-31T11:46:56.452Z,1011.87
2022-07-31T11:48:12.360Z,1011.92
2022-07-31T11:49:05.625Z,1011.89
2022-07-31T11:50:09.988Z,1011.91
2022-07-31T11:51:14.547Z,1011.92
2022-07-31T11:52:30.300Z,1011.89
2022-07-31T11:53:23.596Z,1011.88
2022-07-31T11:54:27.999Z,1011.89
2022-07-31T11:55:32.547Z,1011.91
2022-07-31T11:56:37.034Z,1011.89
2022-07-31T11:57:50.972Z,1011.92
2022-07-31T11:58:46.026Z,1011.88
2022-07-31T11:59:50.561Z,1011.87
2022-07-31T12:00:55.035Z,1011.89
2022-07-31T12:01:59.496Z,1011.92
2022-07-31T12:03:04.140Z,1011.87
2022-07-31T12:04:09.183Z,1011.85
2022-07-31T12:05:12.888Z,1011.81
2022-07-31T12:06:17.457Z,1011.81
2022-07-31T12:07:21.974Z,1011.80
2022-07-31T12:08:26.510Z,1011.77
2022-07-31T12:10:02.531Z,1011.76
2022-07-31T12:10:35.469Z,1011.75
2022-07-31T12:11:40.079Z,1011.76
2022-07-31T12:12:44.540Z,1011.67
2022-07-31T12:13:49.119Z,1011.64
2022-07-31T12:14:53.584Z,1011.70
2022-07-31T12:15:58.066Z,1011.67
2022-07-31T12:17:02.858Z,1011.66
2022-07-31T12:18:06.984Z,1011.66
2022-07-31T12:19:11.527Z,1011.62
2022-07-31T12:20:29.828Z,1011.62
2022-07-31T12:21:20.544Z,1011.63
2022-07-31T12:22:25.073Z,1011.55
2022-07-31T12:23:40.216Z,1011.49
2022-07-31T12:24:34.077Z,1011.45
2022-07-31T12:25:38.631Z,1011.45
2022-07-31T12:26:43.153Z,1011.48
2022-07-31T12:27:47.678Z,1011.44
2022-07-31T12:28:52.103Z,1011.44
2022-07-31T12:29:56.582Z,1011.44
2022-07-31T12:31:01.201Z,1011.39
2022-07-31T12:32:05.704Z,1011.40
2022-07-31T12:33:10.231Z,1011.41
2022-07-31T12:34:14.748Z,1011.40
2022-07-31T12:35:19.177Z,1011.42
2022-07-31T12:36:23.628Z,1011.43
2022-07-31T12:37:28.048Z,1011.43
2022-07-31T12:38:45.139Z,1011.42
2022-07-31T12:39:54.010Z,1011.39
2022-07-31T12:40:41.714Z,1011.39
2022-07-31T12:41:47.140Z,1011.37
2022-07-31T12:42:51.285Z,1011.38
2022-07-31T12:43:55.794Z,1011.38
2022-07-31T12:45:00.333Z,1011.36
2022-07-31T12:46:04.846Z,1011.34
2022-07-31T12:47:09.313Z,1011.36
2022-07-31T12:48:13.838Z,1011.36
2022-07-31T12:49:18.427Z,1011.35
2022-07-31T12:50:22.875Z,1011.33
2022-07-31T12:51:43.976Z,1011.32
2022-07-31T12:52:31.831Z,1011.32
2022-07-31T12:53:36.387Z,1011.32
2022-07-31T12:54:40.843Z,1011.33
2022-07-31T12:55:45.299Z,1011.31
2022-07-31T12:56:49.850Z,1011.30
2022-07-31T12:57:54.270Z,1011.31
2022-07-31T12:58:58.827Z,1011.31
2022-07-31T13:00:03.344Z,1011.27